Time;durP1;ratioP1;P1;durP2;ratioP2;P2;SDS_P1;SDS_P2;PMS_P1;PMS_P2;Temp;Humidity;BMP_temperature;BMP_pressure;BME280_temperature;BME280_humidity;BME280_pressure;Samples;Min_cycle;Max_cycle;Signal;HPM_P1;HPM_P2
2021/08/14 00:01:24;;;;;;;14.77;6.13;;;;;;;;;;5098781;28;20321;-67
2021/08/14 00:03:50;;;;;;;16.50;7.30;;;;;;;;;;5090169;28;20525;-66
2021/08/14 00:06:16;;;;;;;16.20;6.77;;;;;;;;;;5102979;28;20864;-66
2021/08/14 00:08:41;;;;;;;14.85;7.28;;;;;;;;;;5107412;28;20349;-67
2021/08/14 00:11:06;;;;;;;13.07;6.22;;;;;;;;;;5110102;28;20102;-67
2021/08/14 00:13:32;;;;;;;16.52;7.30;;;;;;;;;;5096908;28;20016;-66
2021/08/14 00:15:57;;;;;;;16.67;7.73;;;;;;;;;;5098875;28;20031;-67
2021/08/14 00:18:22;;;;;;;16.70;7.97;;;;;;;;;;5101794;28;20407;-66
2021/08/14 00:20:47;;;;;;;20.10;6.23;;;;;;;;;;5095940;28;20293;-66
2021/08/14 00:23:12;;;;;;;12.73;6.27;;;;;;;;;;5105453;28;20284;-66
2021/08/14 00:25:37;;;;;;;18.85;6.95;;;;;;;;;;5101077;28;20293;-66
2021/08/14 00:28:03;;;;;;;11.45;6.20;;;;;;;;;;5090634;28;20099;-67
2021/08/14 00:30:28;;;;;;;20.85;7.35;;;;;;;;;;5094728;28;20097;-67
2021/08/14 00:32:53;;;;;;;18.33;7.30;;;;;;;;;;5092880;28;20027;-67
2021/08/14 00:35:18;;;;;;;14.27;7.00;;;;;;;;;;5099661;28;20780;-66
2021/08/14 00:37:44;;;;;;;11.40;6.30;;;;;;;;;;5102372;28;20020;-66
2021/08/14 00:40:09;;;;;;;12.13;6.80;;;;;;;;;;5089677;28;20290;-67
2021/08/14 00:42:35;;;;;;;12.32;6.97;;;;;;;;;;5094560;28;20027;-66
2021/08/14 00:45:00;;;;;;;12.82;6.70;;;;;;;;;;5093211;28;20385;-66
2021/08/14 00:47:25;;;;;;;19.27;7.27;;;;;;;;;;5109702;28;20030;-67
2021/08/14 00:49:51;;;;;;;14.05;6.50;;;;;;;;;;5100973;28;20326;-67
2021/08/14 00:52:16;;;;;;;12.75;7.45;;;;;;;;;;5097321;28;20077;-66
2021/08/14 00:54:41;;;;;;;13.97;6.67;;;;;;;;;;5099404;28;20567;-66
2021/08/14 00:57:06;;;;;;;13.18;6.90;;;;;;;;;;5099234;28;20296;-66
2021/08/14 00:59:31;;;;;;;13.43;7.43;;;;;;;;;;5109413;28;20027;-67
2021/08/14 01:01:57;;;;;;;13.50;6.63;;;;;;;;;;5090895;28;20498;-66
2021/08/14 01:04:22;;;;;;;14.07;7.83;;;;;;;;;;5100935;28;20269;-66
2021/08/14 01:06:48;;;;;;;18.13;6.93;;;;;;;;;;5104627;28;20257;-66
2021/08/14 01:09:13;;;;;;;13.18;6.95;;;;;;;;;;5109216;28;20055;-67
2021/08/14 01:11:39;;;;;;;19.73;7.00;;;;;;;;;;5098279;28;20015;-66
2021/08/14 01:14:05;;;;;;;14.27;7.57;;;;;;;;;;5092249;28;20758;-65
2021/08/14 01:16:30;;;;;;;14.18;7.00;;;;;;;;;;5091892;28;20051;-66
2021/08/14 01:18:56;;;;;;;13.30;6.55;;;;;;;;;;5103732;28;20055;-66
2021/08/14 01:21:22;;;;;;;12.60;6.97;;;;;;;;;;5093857;28;20580;-66
2021/08/14 01:23:48;;;;;;;15.85;6.90;;;;;;;;;;5097025;28;20020;-66
2021/08/14 01:26:13;;;;;;;16.13;6.50;;;;;;;;;;5092324;28;20040;-66
2021/08/14 01:28:39;;;;;;;17.88;6.85;;;;;;;;;;5089586;28;20099;-66
2021/08/14 01:31:05;;;;;;;15.82;6.90;;;;;;;;;;5101871;28;20027;-66
2021/08/14 01:33:31;;;;;;;11.93;7.15;;;;;;;;;;5095636;28;20019;-66
2021/08/14 01:35:56;;;;;;;16.02;6.90;;;;;;;;;;5099847;28;20034;-66
2021/08/14 01:38:22;;;;;;;16.93;8.00;;;;;;;;;;5098129;28;20019;-66
2021/08/14 01:40:47;;;;;;;13.73;6.93;;;;;;;;;;5098469;28;20759;-66
2021/08/14 01:43:12;;;;;;;16.45;7.72;;;;;;;;;;5092291;28;20020;-66
2021/08/14 01:45:39;;;;;;;15.52;7.50;;;;;;;;;;5096193;28;20031;-66
2021/08/14 01:48:04;;;;;;;14.48;7.05;;;;;;;;;;5103885;28;20459;-66
2021/08/14 01:50:29;;;;;;;17.50;7.25;;;;;;;;;;5108662;28;20050;-66
2021/08/14 01:52:55;;;;;;;14.43;7.40;;;;;;;;;;5101015;28;20059;-66
2021/08/14 01:55:20;;;;;;;13.00;7.40;;;;;;;;;;5095712;28;20254;-66
2021/08/14 01:57:46;;;;;;;22.70;7.45;;;;;;;;;;5101524;28;20377;-66
2021/08/14 02:00:11;;;;;;;15.85;7.38;;;;;;;;;;5098315;28;20436;-66
2021/08/14 02:02:36;;;;;;;19.70;7.78;;;;;;;;;;5101371;28;20508;-66
2021/08/14 02:05:01;;;;;;;13.68;6.78;;;;;;;;;;5112443;28;20026;-66
2021/08/14 02:07:27;;;;;;;18.02;7.90;;;;;;;;;;5099476;28;20347;-66
2021/08/14 02:09:52;;;;;;;14.83;7.57;;;;;;;;;;5109759;28;20030;-66
2021/08/14 02:12:17;;;;;;;19.25;7.90;;;;;;;;;;5112856;27;20292;-66
2021/08/14 02:14:42;;;;;;;14.27;7.30;;;;;;;;;;5107771;27;20048;-66
2021/08/14 02:17:07;;;;;;;17.55;7.28;;;;;;;;;;5102680;28;20266;-66
2021/08/14 02:19:33;;;;;;;17.63;7.43;;;;;;;;;;5102565;28;20057;-66
2021/08/14 02:21:58;;;;;;;17.60;8.68;;;;;;;;;;5091459;28;20278;-66
2021/08/14 02:24:23;;;;;;;20.20;8.80;;;;;;;;;;5108619;28;20411;-66
2021/08/14 02:26:48;;;;;;;17.77;7.25;;;;;;;;;;5099860;28;20469;-66
2021/08/14 02:29:13;;;;;;;16.00;7.20;;;;;;;;;;5096754;28;20035;-66
2021/08/14 02:31:39;;;;;;;17.70;8.18;;;;;;;;;;5098718;28;20341;-66
2021/08/14 02:34:04;;;;;;;20.60;8.05;;;;;;;;;;5094568;28;20073;-66
2021/08/14 02:36:29;;;;;;;22.67;8.30;;;;;;;;;;5092405;28;20363;-66
2021/08/14 02:38:54;;;;;;;14.87;7.87;;;;;;;;;;5098256;28;20028;-66
2021/08/14 02:41:19;;;;;;;19.57;8.10;;;;;;;;;;5105184;22;20344;-90
2021/08/14 02:43:45;;;;;;;13.82;7.47;;;;;;;;;;5077446;28;20273;-89
2021/08/14 02:46:10;;;;;;;14.18;6.43;;;;;;;;;;5085880;28;20024;-89
2021/08/14 02:48:35;;;;;;;12.57;7.20;;;;;;;;;;5071449;28;20029;-90
2021/08/14 02:51:01;;;;;;;16.60;7.68;;;;;;;;;;5069990;28;20396;-89
2021/08/14 02:53:27;;;;;;;17.73;7.72;;;;;;;;;;5070322;28;20535;-89
2021/08/14 02:55:55;;;;;;;20.52;7.93;;;;;;;;;;5068420;28;20035;-90
2021/08/14 02:58:21;;;;;;;19.02;8.13;;;;;;;;;;5069115;28;20107;-90
2021/08/14 03:00:46;;;;;;;17.00;7.25;;;;;;;;;;5068224;28;20551;-89
2021/08/14 03:03:14;;;;;;;14.50;8.30;;;;;;;;;;5068187;28;20063;-89
2021/08/14 03:05:41;;;;;;;18.02;7.55;;;;;;;;;;5068915;28;20031;-88
2021/08/14 03:08:07;;;;;;;16.40;7.47;;;;;;;;;;5067983;28;20044;-89
2021/08/14 03:10:32;;;;;;;22.02;8.13;;;;;;;;;;5070286;28;20057;-89
2021/08/14 03:12:58;;;;;;;18.20;7.40;;;;;;;;;;5069631;28;20466;-90
2021/08/14 03:15:23;;;;;;;18.70;8.95;;;;;;;;;;5068871;28;20017;-89
2021/08/14 03:17:51;;;;;;;13.73;6.97;;;;;;;;;;5068825;28;20658;-87
2021/08/14 03:20:17;;;;;;;17.92;7.65;;;;;;;;;;5068449;28;20024;-88
2021/08/14 03:22:42;;;;;;;18.70;7.82;;;;;;;;;;5069162;28;20032;-89
2021/08/14 03:25:08;;;;;;;15.00;8.15;;;;;;;;;;5068635;28;20030;-88
2021/08/14 03:27:37;;;;;;;19.90;7.35;;;;;;;;;;5067322;28;20660;-90
2021/08/14 03:30:02;;;;;;;17.05;8.02;;;;;;;;;;5069383;28;20055;-90
2021/08/14 03:32:28;;;;;;;14.85;8.25;;;;;;;;;;5068650;28;20064;-90
2021/08/14 03:34:56;;;;;;;17.63;9.55;;;;;;;;;;5069578;28;20023;-89
2021/08/14 03:37:25;;;;;;;19.90;9.32;;;;;;;;;;5067977;28;20027;-90
2021/08/14 03:39:50;;;;;;;19.30;8.90;;;;;;;;;;5068670;28;20505;-90
2021/08/14 03:42:16;;;;;;;31.75;8.95;;;;;;;;;;5068233;28;20035;-89
2021/08/14 03:44:41;;;;;;;19.25;7.90;;;;;;;;;;5067700;28;20016;-89
2021/08/14 03:47:10;;;;;;;17.35;7.75;;;;;;;;;;5068481;28;20396;-89
2021/08/14 03:49:35;;;;;;;14.05;7.65;;;;;;;;;;5068263;28;20103;-90
2021/08/14 03:52:00;;;;;;;16.70;7.70;;;;;;;;;;5068046;28;20107;-89
2021/08/14 03:54:26;;;;;;;17.40;8.55;;;;;;;;;;5069148;28;20063;-90
2021/08/14 03:56:56;;;;;;;15.93;8.73;;;;;;;;;;5068220;28;20110;-90
2021/08/14 03:59:24;;;;;;;14.20;8.65;;;;;;;;;;5069445;28;20019;-90
2021/08/14 04:01:56;;;;;;;17.05;8.57;;;;;;;;;;5070254;28;20025;-89
2021/08/14 04:04:24;;;;;;;17.52;7.72;;;;;;;;;;5071087;28;20516;-91
2021/08/14 04:06:57;;;;;;;20.80;8.00;;;;;;;;;;5068765;28;20043;-89
2021/08/14 04:09:25;;;;;;;19.52;8.25;;;;;;;;;;5067625;28;20058;-89
2021/08/14 04:11:51;;;;;;;22.65;8.93;;;;;;;;;;5067054;28;20028;-90
2021/08/14 04:14:22;;;;;;;23.17;8.80;;;;;;;;;;5067375;28;20486;-89
2021/08/14 04:16:47;;;;;;;22.05;9.07;;;;;;;;;;5067664;28;20024;-89
2021/08/14 04:19:13;;;;;;;23.88;8.90;;;;;;;;;;5067349;28;20561;-90
2021/08/14 04:21:41;;;;;;;19.92;8.00;;;;;;;;;;5068174;28;20023;-88
2021/08/14 04:24:09;;;;;;;15.07;8.30;;;;;;;;;;5065768;28;20029;-90
2021/08/14 04:26:40;;;;;;;21.02;8.85;;;;;;;;;;5067127;28;20474;-90
2021/08/14 04:29:11;;;;;;;16.27;9.02;;;;;;;;;;5067399;28;20020;-90
2021/08/14 04:31:37;;;;;;;29.33;10.07;;;;;;;;;;5065964;28;20075;-89
2021/08/14 04:34:02;;;;;;;24.92;9.48;;;;;;;;;;5067109;28;20079;-91
2021/08/14 04:36:28;;;;;;;20.38;8.88;;;;;;;;;;5067890;28;20062;-90
2021/08/14 04:38:53;;;;;;;20.35;9.60;;;;;;;;;;5066734;28;20040;-89
2021/08/14 04:41:21;;;;;;;18.20;9.65;;;;;;;;;;5068625;28;20032;-90
2021/08/14 04:43:47;;;;;;;22.23;9.88;;;;;;;;;;5066608;28;20024;-89
2021/08/14 04:46:18;;;;;;;24.30;9.68;;;;;;;;;;5068287;28;20035;-90
2021/08/14 04:48:44;;;;;;;21.02;8.55;;;;;;;;;;5063092;28;20051;-90
2021/08/14 04:51:09;;;;;;;22.80;9.65;;;;;;;;;;5065813;28;20020;-89
2021/08/14 04:53:34;;;;;;;21.35;8.90;;;;;;;;;;5066342;28;20029;-90
2021/08/14 04:56:00;;;;;;;15.88;9.57;;;;;;;;;;5066211;28;20016;-90
2021/08/14 04:58:28;;;;;;;23.58;9.52;;;;;;;;;;5066942;28;20025;-89
2021/08/14 05:00:53;;;;;;;17.00;9.07;;;;;;;;;;5066994;28;20513;-91
2021/08/14 05:03:19;;;;;;;17.08;9.48;;;;;;;;;;5066091;28;20020;-89
2021/08/14 05:05:44;;;;;;;24.38;9.85;;;;;;;;;;5067576;28;20043;-89
2021/08/14 05:08:10;;;;;;;17.20;9.15;;;;;;;;;;5068118;28;20028;-89
2021/08/14 05:10:38;;;;;;;17.80;9.18;;;;;;;;;;5067548;28;20017;-90
2021/08/14 05:13:04;;;;;;;17.40;8.90;;;;;;;;;;5065865;28;20021;-91
2021/08/14 05:15:32;;;;;;;16.05;9.15;;;;;;;;;;5067158;28;20017;-89
2021/08/14 05:17:57;;;;;;;19.73;8.75;;;;;;;;;;5066208;28;20020;-89
2021/08/14 05:20:24;;;;;;;18.02;8.70;;;;;;;;;;5059060;28;20050;-90
2021/08/14 05:22:49;;;;;;;21.05;8.95;;;;;;;;;;5066712;28;20388;-90
2021/08/14 05:25:28;;;;;;;;;;;;;;;;;;;;;
2021/08/14 05:28:34;;;;;;;18.58;7.80;;;;;;;;;;5002105;28;20318;-91
2021/08/14 05:34:30;;;;;;;14.80;7.95;;;;;;;;;;4932170;29;20527;-90
2021/08/14 05:36:56;;;;;;;21.67;8.48;;;;;;;;;;4948479;22;20437;-66
2021/08/14 05:39:21;;;;;;;18.23;8.73;;;;;;;;;;5140760;27;20068;-66
2021/08/14 05:41:48;;;;;;;13.27;8.10;;;;;;;;;;5129789;27;20349;-66
2021/08/14 05:44:13;;;;;;;18.52;8.40;;;;;;;;;;5109353;28;20263;-66
2021/08/14 05:46:38;;;;;;;18.40;8.17;;;;;;;;;;5108755;28;20099;-66
2021/08/14 05:49:03;;;;;;;15.60;8.03;;;;;;;;;;5109446;28;20735;-67
2021/08/14 05:51:29;;;;;;;21.55;9.23;;;;;;;;;;5109054;28;20249;-66
2021/08/14 05:53:54;;;;;;;13.02;7.18;;;;;;;;;;5107852;28;20019;-67
2021/08/14 05:56:20;;;;;;;19.25;8.88;;;;;;;;;;5108870;28;20024;-66
2021/08/14 05:58:45;;;;;;;20.83;8.80;;;;;;;;;;5108475;28;20039;-66
2021/08/14 06:01:10;;;;;;;19.03;8.67;;;;;;;;;;5124632;27;20778;-66
2021/08/14 06:03:35;;;;;;;18.40;8.33;;;;;;;;;;5107767;28;20341;-67
2021/08/14 06:06:01;;;;;;;17.42;8.25;;;;;;;;;;5108528;28;20250;-66
2021/08/14 06:08:26;;;;;;;17.55;8.20;;;;;;;;;;5107859;28;20022;-66
2021/08/14 06:10:51;;;;;;;21.30;9.50;;;;;;;;;;5108131;28;20484;-66
2021/08/14 06:13:16;;;;;;;14.65;8.18;;;;;;;;;;5107998;28;20273;-66
2021/08/14 06:15:42;;;;;;;19.53;9.30;;;;;;;;;;5108282;28;20028;-66
2021/08/14 06:18:07;;;;;;;22.17;9.23;;;;;;;;;;5106030;27;20261;-66
2021/08/14 06:20:32;;;;;;;19.67;9.30;;;;;;;;;;5111737;28;20289;-67
2021/08/14 06:22:57;;;;;;;18.70;9.20;;;;;;;;;;5112640;28;20103;-66
2021/08/14 06:25:24;;;;;;;21.17;9.65;;;;;;;;;;5112465;28;20373;-67
2021/08/14 06:27:49;;;;;;;20.67;10.00;;;;;;;;;;5112819;28;20550;-66
2021/08/14 06:30:14;;;;;;;16.83;9.90;;;;;;;;;;5112276;28;20027;-66
2021/08/14 06:32:39;;;;;;;22.33;10.50;;;;;;;;;;5112221;28;20264;-66
2021/08/14 06:35:05;;;;;;;16.77;8.60;;;;;;;;;;5112336;28;20047;-66
2021/08/14 06:37:30;;;;;;;26.45;11.40;;;;;;;;;;5112519;28;20084;-66
2021/08/14 06:39:55;;;;;;;24.27;9.13;;;;;;;;;;5112937;28;20032;-67
2021/08/14 06:42:20;;;;;;;22.87;10.40;;;;;;;;;;5111836;28;20644;-66
2021/08/14 06:44:45;;;;;;;19.52;9.00;;;;;;;;;;5110127;28;20349;-66
2021/08/14 06:47:11;;;;;;;22.15;9.65;;;;;;;;;;5112126;28;20019;-66
2021/08/14 06:49:36;;;;;;;16.03;9.67;;;;;;;;;;5129187;27;20512;-66
2021/08/14 06:52:01;;;;;;;22.50;9.27;;;;;;;;;;5132398;27;20314;-66
2021/08/14 06:54:26;;;;;;;22.27;9.15;;;;;;;;;;5123632;27;20293;-66
2021/08/14 06:56:51;;;;;;;22.40;9.68;;;;;;;;;;5110635;28;20024;-66
2021/08/14 06:59:17;;;;;;;16.10;9.10;;;;;;;;;;5111908;28;20027;-66
2021/08/14 07:01:42;;;;;;;22.03;10.10;;;;;;;;;;5111278;28;20292;-66
2021/08/14 07:04:07;;;;;;;16.48;8.98;;;;;;;;;;5111452;28;20790;-66
2021/08/14 07:06:32;;;;;;;19.98;9.23;;;;;;;;;;5111061;28;20051;-66
2021/08/14 07:08:57;;;;;;;24.70;10.50;;;;;;;;;;5112036;28;20061;-66
2021/08/14 07:11:23;;;;;;;24.50;11.07;;;;;;;;;;5111583;28;20260;-66
2021/08/14 07:13:49;;;;;;;20.55;11.40;;;;;;;;;;5111153;28;20290;-66
2021/08/14 07:16:14;;;;;;;18.75;9.13;;;;;;;;;;5110219;28;20022;-67
2021/08/14 07:18:39;;;;;;;49.33;11.68;;;;;;;;;;5110761;28;20015;-66
2021/08/14 07:21:05;;;;;;;22.52;9.40;;;;;;;;;;5110149;28;20032;-67
2021/08/14 07:23:30;;;;;;;23.55;9.52;;;;;;;;;;5107700;28;20074;-67
2021/08/14 07:25:56;;;;;;;25.40;9.73;;;;;;;;;;5110573;27;20526;-67
2021/08/14 07:28:21;;;;;;;17.88;7.82;;;;;;;;;;5109553;28;20023;-67
2021/08/14 07:30:46;;;;;;;15.03;7.20;;;;;;;;;;5108486;28;20061;-67
2021/08/14 07:33:12;;;;;;;20.15;8.10;;;;;;;;;;5110541;28;20297;-67
2021/08/14 07:35:37;;;;;;;16.27;6.50;;;;;;;;;;5110825;28;20087;-67
2021/08/14 07:38:02;;;;;;;12.23;7.10;;;;;;;;;;5111153;28;20414;-67
2021/08/14 07:40:27;;;;;;;22.07;7.13;;;;;;;;;;5111069;28;20385;-67
2021/08/14 07:42:53;;;;;;;20.25;8.48;;;;;;;;;;5097384;28;20020;-67
2021/08/14 07:45:18;;;;;;;17.30;8.32;;;;;;;;;;5090950;28;20062;-67
2021/08/14 07:47:47;;;;;;;23.63;7.93;;;;;;;;;;5090508;28;20028;-67
2021/08/14 07:50:14;;;;;;;19.38;8.65;;;;;;;;;;5107874;28;20020;-67
2021/08/14 07:52:39;;;;;;;21.73;9.98;;;;;;;;;;5110816;28;20069;-67
2021/08/14 07:55:05;;;;;;;18.27;8.80;;;;;;;;;;5110963;28;20023;-67
2021/08/14 07:57:30;;;;;;;20.13;10.80;;;;;;;;;;5111219;28;20247;-67
2021/08/14 07:59:58;;;;;;;14.30;7.57;;;;;;;;;;5108403;28;20043;-67
2021/08/14 08:02:23;;;;;;;19.00;8.13;;;;;;;;;;5105105;28;20019;-67
2021/08/14 08:04:48;;;;;;;18.10;8.30;;;;;;;;;;5110641;28;20020;-67
2021/08/14 08:07:13;;;;;;;22.10;7.67;;;;;;;;;;5110669;28;20085;-67
2021/08/14 08:09:39;;;;;;;17.83;7.53;;;;;;;;;;5110630;28;20043;-67
2021/08/14 08:12:04;;;;;;;19.63;6.90;;;;;;;;;;5110312;28;20076;-67
2021/08/14 08:14:29;;;;;;;22.20;7.75;;;;;;;;;;5110505;28;20023;-67
2021/08/14 08:16:54;;;;;;;14.17;6.23;;;;;;;;;;5102507;28;20027;-68
2021/08/14 08:19:19;;;;;;;16.07;7.70;;;;;;;;;;5097361;28;20519;-67
2021/08/14 08:21:45;;;;;;;16.33;7.70;;;;;;;;;;5109515;28;20034;-67
2021/08/14 08:24:10;;;;;;;14.10;5.73;;;;;;;;;;5109819;28;20023;-67
2021/08/14 08:26:35;;;;;;;20.13;6.00;;;;;;;;;;5110533;28;20484;-67
2021/08/14 08:29:00;;;;;;;15.60;5.00;;;;;;;;;;5110519;28;20080;-67
2021/08/14 08:31:26;;;;;;;12.27;5.22;;;;;;;;;;5110302;28;20019;-67
2021/08/14 08:33:51;;;;;;;12.30;5.07;;;;;;;;;;5109532;28;20459;-67
2021/08/14 08:36:16;;;;;;;13.57;5.53;;;;;;;;;;5110141;28;20051;-67
2021/08/14 08:38:41;;;;;;;16.73;4.83;;;;;;;;;;5109544;28;20277;-67
2021/08/14 08:41:08;;;;;;;15.33;5.50;;;;;;;;;;5109764;28;20451;-67
2021/08/14 08:43:33;;;;;;;21.25;4.72;;;;;;;;;;5109385;28;20294;-66
2021/08/14 08:45:58;;;;;;;18.07;5.60;;;;;;;;;;5109744;28;20011;-67
2021/08/14 08:48:23;;;;;;;20.20;5.73;;;;;;;;;;5109520;28;20271;-67
2021/08/14 08:50:49;;;;;;;19.70;5.55;;;;;;;;;;5109784;28;20102;-67
2021/08/14 08:53:14;;;;;;;12.13;4.57;;;;;;;;;;5109485;28;20020;-67
2021/08/14 08:55:39;;;;;;;18.70;5.82;;;;;;;;;;5109686;28;20079;-67
2021/08/14 08:58:05;;;;;;;13.07;4.25;;;;;;;;;;5109981;28;20061;-67
2021/08/14 09:00:30;;;;;;;13.80;4.50;;;;;;;;;;5110002;28;20016;-66
2021/08/14 09:03:09;;;;;;;13.80;5.20;;;;;;;;;;5108912;28;20026;-67
2021/08/14 09:05:43;;;;;;;17.42;5.13;;;;;;;;;;5108884;28;20015;-67
2021/08/14 09:08:10;;;;;;;22.20;5.13;;;;;;;;;;5109595;28;20415;-67
2021/08/14 09:10:35;;;;;;;17.42;5.82;;;;;;;;;;5110052;28;20028;-67
2021/08/14 09:13:08;;;;;;;14.70;4.73;;;;;;;;;;5109559;28;20016;-67
2021/08/14 09:15:33;;;;;;;11.10;4.60;;;;;;;;;;5106197;28;20028;-67
2021/08/14 09:18:09;;;;;;;22.97;6.40;;;;;;;;;;5103258;28;20065;-66
2021/08/14 09:20:46;;;;;;;12.45;4.20;;;;;;;;;;5097534;28;20275;-67
2021/08/14 09:23:11;;;;;;;12.32;4.07;;;;;;;;;;5106660;28;20065;-67
2021/08/14 09:25:38;;;;;;;12.45;5.20;;;;;;;;;;5105821;28;20019;-67
2021/08/14 09:28:04;;;;;;;13.75;4.63;;;;;;;;;;5109263;28;20513;-67
2021/08/14 09:30:49;;;;;;;20.63;5.78;;;;;;;;;;5108873;28;20100;-66
2021/08/14 09:33:15;;;;;;;19.00;4.50;;;;;;;;;;5109419;28;20024;-67
2021/08/14 09:35:41;;;;;;;11.52;3.42;;;;;;;;;;5109408;28;20051;-67
2021/08/14 09:38:07;;;;;;;18.83;4.80;;;;;;;;;;5109468;28;20063;-67
2021/08/14 09:40:33;;;;;;;14.60;4.30;;;;;;;;;;5109089;28;20027;-67
2021/08/14 09:42:58;;;;;;;18.65;5.03;;;;;;;;;;5108457;28;20032;-67
2021/08/14 09:45:23;;;;;;;19.00;4.03;;;;;;;;;;5109681;28;20099;-67
2021/08/14 09:47:51;;;;;;;16.03;3.87;;;;;;;;;;5109878;28;20466;-67
2021/08/14 09:50:16;;;;;;;12.80;4.25;;;;;;;;;;5108788;28;20257;-66
2021/08/14 09:52:41;;;;;;;13.60;3.35;;;;;;;;;;5108696;28;20412;-67
2021/08/14 09:55:12;;;;;;;11.48;3.25;;;;;;;;;;5112443;28;20349;-67
2021/08/14 09:57:37;;;;;;;12.90;3.65;;;;;;;;;;5112865;28;20042;-67
2021/08/14 10:00:02;;;;;;;11.63;3.20;;;;;;;;;;5112148;28;20034;-67
2021/08/14 10:02:28;;;;;;;12.10;3.08;;;;;;;;;;5112340;28;20500;-67
2021/08/14 10:04:55;;;;;;;10.07;3.50;;;;;;;;;;5112695;28;20486;-67
2021/08/14 10:07:20;;;;;;;11.73;3.33;;;;;;;;;;5112658;28;20106;-66
2021/08/14 10:09:46;;;;;;;11.73;2.95;;;;;;;;;;5112549;28;20153;-67
2021/08/14 10:12:12;;;;;;;13.98;3.70;;;;;;;;;;5112422;28;20061;-67
2021/08/14 10:14:38;;;;;;;8.90;3.13;;;;;;;;;;5112625;28;20135;-67
2021/08/14 10:17:04;;;;;;;12.38;3.38;;;;;;;;;;5112964;28;20027;-67
2021/08/14 10:19:29;;;;;;;10.77;3.45;;;;;;;;;;5111858;27;20385;-67
2021/08/14 10:21:55;;;;;;;16.83;3.70;;;;;;;;;;5127574;27;20412;-67
2021/08/14 10:24:20;;;;;;;12.45;3.25;;;;;;;;;;5112765;28;20024;-67
2021/08/14 10:26:46;;;;;;;11.40;3.50;;;;;;;;;;5112224;28;20318;-67
2021/08/14 10:29:11;;;;;;;17.48;4.10;;;;;;;;;;5128699;27;20039;-67
2021/08/14 10:31:36;;;;;;;16.52;3.63;;;;;;;;;;5112323;28;20059;-67
2021/08/14 10:34:11;;;;;;;8.32;3.15;;;;;;;;;;5111763;28;20435;-67
2021/08/14 10:36:37;;;;;;;22.33;3.80;;;;;;;;;;5112159;28;20023;-66
2021/08/14 10:39:20;;;;;;;16.02;4.15;;;;;;;;;;5112423;28;20023;-67
2021/08/14 10:41:47;;;;;;;17.80;4.70;;;;;;;;;;5111312;28;20076;-66
2021/08/14 10:44:13;;;;;;;16.75;3.70;;;;;;;;;;5111804;28;20035;-66
2021/08/14 10:46:42;;;;;;;9.45;3.28;;;;;;;;;;5112160;27;20012;-66
2021/08/14 10:49:09;;;;;;;14.50;4.93;;;;;;;;;;5112591;28;20423;-66
2021/08/14 10:51:47;;;;;;;16.98;4.97;;;;;;;;;;5112217;28;20067;-66
2021/08/14 10:54:12;;;;;;;16.10;3.88;;;;;;;;;;5112289;28;20098;-66
2021/08/14 10:56:54;;;;;;;12.95;3.40;;;;;;;;;;5112317;28;20614;-67
2021/08/14 10:59:34;;;;;;;14.40;3.90;;;;;;;;;;5111960;28;20413;-66
2021/08/14 11:01:59;;;;;;;13.77;3.60;;;;;;;;;;5111131;28;20024;-66
2021/08/14 11:04:38;;;;;;;13.73;4.17;;;;;;;;;;5111526;28;20039;-66
2021/08/14 11:07:27;;;;;;;9.48;3.63;;;;;;;;;;5111888;27;20073;-66
2021/08/14 11:09:52;;;;;;;15.80;4.38;;;;;;;;;;5101302;28;20549;-67
2021/08/14 11:12:31;;;;;;;12.00;3.80;;;;;;;;;;5111211;28;20037;-66
2021/08/14 11:15:12;;;;;;;16.98;3.70;;;;;;;;;;5112111;28;20027;-66
2021/08/14 11:17:38;;;;;;;10.50;3.60;;;;;;;;;;5111459;28;20038;-66
2021/08/14 11:20:03;;;;;;;15.43;3.90;;;;;;;;;;5111561;28;20024;-67
2021/08/14 11:22:30;;;;;;;11.32;3.92;;;;;;;;;;5110840;28;20081;-66
2021/08/14 11:25:05;;;;;;;13.63;3.83;;;;;;;;;;5111517;28;20019;-66
2021/08/14 11:27:31;;;;;;;16.52;3.95;;;;;;;;;;5111325;28;20212;-66
2021/08/14 11:29:58;;;;;;;11.30;3.60;;;;;;;;;;5111687;28;20019;-67
2021/08/14 11:32:23;;;;;;;19.10;3.85;;;;;;;;;;5111132;28;20465;-66
2021/08/14 11:34:50;;;;;;;12.32;3.55;;;;;;;;;;5111087;28;20032;-67
2021/08/14 11:37:15;;;;;;;12.20;4.00;;;;;;;;;;5110913;28;20037;-66
2021/08/14 11:39:40;;;;;;;14.23;4.43;;;;;;;;;;5111395;28;20023;-66
2021/08/14 11:42:08;;;;;;;10.40;4.13;;;;;;;;;;5110462;28;20281;-67
2021/08/14 11:44:35;;;;;;;16.73;4.68;;;;;;;;;;5110742;28;20024;-66
2021/08/14 11:47:01;;;;;;;9.82;3.70;;;;;;;;;;5110655;28;20387;-66
2021/08/14 11:49:26;;;;;;;9.40;3.85;;;;;;;;;;5110799;28;20019;-67
2021/08/14 11:52:01;;;;;;;16.17;4.03;;;;;;;;;;5110914;28;20027;-66
2021/08/14 11:54:30;;;;;;;13.77;3.78;;;;;;;;;;5110582;28;20570;-67
2021/08/14 11:57:07;;;;;;;13.07;4.82;;;;;;;;;;5110792;28;20098;-66
2021/08/14 11:59:33;;;;;;;15.88;4.50;;;;;;;;;;5111268;28;20019;-66
2021/08/14 12:01:58;;;;;;;13.23;3.78;;;;;;;;;;5110503;28;20012;-66
2021/08/14 12:04:25;;;;;;;10.37;4.33;;;;;;;;;;5109814;28;20022;-66
2021/08/14 12:06:54;;;;;;;10.48;3.30;;;;;;;;;;5110546;28;20354;-66
2021/08/14 12:09:19;;;;;;;14.70;4.18;;;;;;;;;;5111199;28;20355;-66
2021/08/14 12:11:45;;;;;;;10.67;3.40;;;;;;;;;;5110064;28;20161;-67
2021/08/14 12:14:18;;;;;;;13.43;3.40;;;;;;;;;;5109961;28;20735;-66
2021/08/14 12:16:44;;;;;;;13.00;3.75;;;;;;;;;;5110359;28;20015;-66
2021/08/14 12:19:14;;;;;;;9.48;3.65;;;;;;;;;;5110817;28;20032;-66
2021/08/14 12:21:40;;;;;;;11.95;3.70;;;;;;;;;;5110322;28;20028;-66
2021/08/14 12:24:06;;;;;;;9.85;3.33;;;;;;;;;;5109616;28;20019;-66
2021/08/14 12:26:31;;;;;;;8.65;3.30;;;;;;;;;;5110731;27;20011;-66
2021/08/14 12:29:00;;;;;;;9.20;3.22;;;;;;;;;;5110467;28;20055;-66
2021/08/14 12:31:25;;;;;;;10.23;2.78;;;;;;;;;;5109935;28;20064;-67
2021/08/14 12:33:52;;;;;;;9.83;3.17;;;;;;;;;;5107281;28;20027;-66
2021/08/14 12:36:32;;;;;;;14.57;4.25;;;;;;;;;;5109874;28;20397;-66
2021/08/14 12:38:57;;;;;;;10.68;3.92;;;;;;;;;;5109870;28;20024;-66
2021/08/14 12:41:22;;;;;;;7.93;3.28;;;;;;;;;;5109564;28;20023;-67
2021/08/14 12:43:51;;;;;;;6.73;3.10;;;;;;;;;;5109450;28;20019;-67
2021/08/14 12:46:18;;;;;;;13.32;4.28;;;;;;;;;;5110273;28;20426;-66
2021/08/14 12:49:02;;;;;;;10.30;3.53;;;;;;;;;;5109908;28;20077;-66
2021/08/14 12:51:27;;;;;;;10.75;2.88;;;;;;;;;;5109895;28;20058;-66
2021/08/14 12:53:52;;;;;;;9.17;3.30;;;;;;;;;;5110002;28;20051;-67
2021/08/14 12:56:17;;;;;;;10.30;3.70;;;;;;;;;;5109116;28;20341;-67
2021/08/14 12:58:42;;;;;;;6.78;2.80;;;;;;;;;;5109567;28;20268;-66
2021/08/14 13:01:08;;;;;;;18.40;3.57;;;;;;;;;;5109089;28;20039;-66
2021/08/14 13:03:33;;;;;;;8.67;3.47;;;;;;;;;;5108703;28;20016;-66
2021/08/14 13:05:58;;;;;;;13.77;3.23;;;;;;;;;;5109907;28;20281;-66
2021/08/14 13:08:23;;;;;;;10.23;3.07;;;;;;;;;;5109834;28;20043;-67
2021/08/14 13:10:48;;;;;;;8.57;2.93;;;;;;;;;;5109475;28;20069;-66
2021/08/14 13:13:14;;;;;;;9.77;2.83;;;;;;;;;;5109098;28;20688;-67
2021/08/14 13:15:39;;;;;;;8.50;3.35;;;;;;;;;;5109626;28;20027;-67
2021/08/14 13:18:04;;;;;;;16.45;3.38;;;;;;;;;;5109094;28;20157;-67
2021/08/14 13:20:29;;;;;;;14.33;3.33;;;;;;;;;;5108846;28;20015;-66
2021/08/14 13:22:55;;;;;;;8.35;3.60;;;;;;;;;;5108934;28;20381;-66
2021/08/14 13:25:21;;;;;;;7.28;2.88;;;;;;;;;;5109305;28;20080;-67
2021/08/14 13:27:47;;;;;;;10.60;3.22;;;;;;;;;;5109415;28;20027;-66
2021/08/14 13:30:13;;;;;;;8.10;3.40;;;;;;;;;;5112995;28;20030;-67
2021/08/14 13:32:39;;;;;;;10.27;3.65;;;;;;;;;;5112633;28;20027;-67
2021/08/14 13:35:05;;;;;;;10.77;3.47;;;;;;;;;;5113351;28;20030;-67
2021/08/14 13:37:30;;;;;;;8.40;2.97;;;;;;;;;;5112685;28;20089;-67
2021/08/14 13:39:55;;;;;;;11.93;2.60;;;;;;;;;;5113598;28;20023;-66
2021/08/14 13:42:20;;;;;;;7.73;2.97;;;;;;;;;;5113163;28;20450;-67
2021/08/14 13:44:46;;;;;;;7.38;3.03;;;;;;;;;;5113052;28;20023;-67
2021/08/14 13:47:11;;;;;;;17.30;3.47;;;;;;;;;;5113719;28;20030;-67
2021/08/14 13:49:36;;;;;;;10.63;2.95;;;;;;;;;;5113341;28;20028;-67
2021/08/14 13:52:03;;;;;;;7.27;2.27;;;;;;;;;;5113417;28;20030;-67
2021/08/14 13:54:28;;;;;;;13.90;3.67;;;;;;;;;;5112978;28;20531;-67
2021/08/14 13:56:54;;;;;;;10.37;3.33;;;;;;;;;;5112835;28;20015;-67
2021/08/14 13:59:20;;;;;;;8.55;2.92;;;;;;;;;;5113105;28;20099;-66
2021/08/14 14:01:46;;;;;;;13.07;3.60;;;;;;;;;;5111349;28;20015;-67
2021/08/14 14:04:11;;;;;;;9.70;3.63;;;;;;;;;;5102770;28;20020;-67
2021/08/14 14:06:36;;;;;;;13.95;3.65;;;;;;;;;;5111752;28;20269;-68
2021/08/14 14:09:01;;;;;;;9.57;3.00;;;;;;;;;;5113380;28;20023;-66
2021/08/14 14:11:27;;;;;;;10.40;3.55;;;;;;;;;;5112980;28;20249;-66
2021/08/14 14:13:52;;;;;;;8.07;3.08;;;;;;;;;;5112604;28;20027;-66
2021/08/14 14:16:17;;;;;;;12.20;3.25;;;;;;;;;;5112836;28;20470;-67
2021/08/14 14:18:42;;;;;;;8.40;2.90;;;;;;;;;;5112267;28;20030;-67
2021/08/14 14:21:09;;;;;;;5.03;2.67;;;;;;;;;;5112875;28;20261;-67
2021/08/14 14:23:34;;;;;;;10.95;3.50;;;;;;;;;;5112332;28;20025;-66
2021/08/14 14:25:59;;;;;;;8.17;3.03;;;;;;;;;;5112599;28;20024;-67
2021/08/14 14:28:24;;;;;;;9.13;3.10;;;;;;;;;;5112210;28;20011;-67
2021/08/14 14:30:49;;;;;;;7.35;2.78;;;;;;;;;;5112651;28;20043;-67